createdAt,value
2022-11-29T00:02:12.674Z,100671.07
2022-11-29T00:05:00.437Z,100672.98
2022-11-29T00:07:48.205Z,100675.08
2022-11-29T00:10:37.843Z,100672.52
2022-11-29T00:13:25.319Z,100676.20
2022-11-29T00:16:12.971Z,100676.61
2022-11-29T00:19:00.542Z,100668.84
2022-11-29T00:21:48.391Z,100669.31
2022-11-29T00:24:36.841Z,100669.51
2022-11-29T00:27:24.343Z,100671.87
2022-11-29T00:30:12.974Z,100670.89
2022-11-29T00:33:00.597Z,100672.21
2022-11-29T00:35:48.263Z,100672.59
2022-11-29T00:38:35.780Z,100677.48
2022-11-29T00:41:23.501Z,100674.86
2022-11-29T00:44:16.760Z,100677.02
2022-11-29T00:47:07.432Z,100671.66
2022-11-29T00:49:55.153Z,100672.33
2022-11-29T00:52:42.947Z,100667.09
2022-11-29T00:55:30.243Z,100663.46
2022-11-29T00:58:19.231Z,100664.66
2022-11-29T01:01:06.942Z,100661.54
2022-11-29T01:03:54.548Z,100663.41
2022-11-29T01:06:42.194Z,100663.59
2022-11-29T01:09:29.744Z,100657.48
2022-11-29T01:12:17.266Z,100652.86
2022-11-29T01:15:07.853Z,100654.98
2022-11-29T01:17:55.707Z,100653.70
2022-11-29T01:20:43.430Z,100657.51
2022-11-29T01:23:31.284Z,100652.95
2022-11-29T01:26:24.597Z,100652.99
2022-11-29T01:29:13.289Z,100654.47
2022-11-29T01:32:00.937Z,100659.20
2022-11-29T01:34:48.222Z,100658.32
2022-11-29T01:37:35.942Z,100662.12
2022-11-29T01:40:23.305Z,100664.09
2022-11-29T01:43:18.739Z,100666.58
2022-11-29T01:46:06.937Z,100669.98
2022-11-29T01:49:00.513Z,100666.66
2022-11-29T01:51:56.104Z,100665.73
2022-11-29T01:54:48.440Z,100667.49
2022-11-29T01:57:39.954Z,100665.70
2022-11-29T02:00:27.964Z,100664.71
2022-11-29T02:03:18.449Z,100666.83
2022-11-29T02:06:07.829Z,100659.19
2022-11-29T02:08:56.253Z,100664.40
2022-11-29T02:11:54.640Z,100666.20
2022-11-29T02:15:02.270Z,100666.00
2022-11-29T02:18:03.332Z,100669.39
2022-11-29T02:21:16.910Z,100667.81
2022-11-29T02:24:52.103Z,100668.14
2022-11-29T02:28:09.958Z,100669.60
2022-11-29T02:31:58.478Z,100668.65
2022-11-29T02:35:13.670Z,100676.25
2022-11-29T02:38:30.334Z,100675.27
2022-11-29T02:41:32.564Z,100670.63
2022-11-29T02:44:29.163Z,100671.14
2022-11-29T02:47:46.915Z,100674.33
2022-11-29T02:50:55.729Z,100673.27
2022-11-29T02:54:12.148Z,100677.54
2022-11-29T02:57:37.379Z,100678.96
2022-11-29T03:00:25.165Z,100682.19
2022-11-29T03:03:24.039Z,100685.37
2022-11-29T03:07:25.542Z,100691.17
2022-11-29T03:10:50.376Z,100689.54
2022-11-29T03:14:23.566Z,100685.30
2022-11-29T03:17:32.900Z,100686.38
2022-11-29T03:20:55.288Z,100683.00
2022-11-29T03:23:49.374Z,100681.09
2022-11-29T03:26:51.635Z,100687.02
2022-11-29T03:29:59.814Z,100689.45
2022-11-29T03:33:01.391Z,100686.39
2022-11-29T03:36:19.902Z,100689.41
2022-11-29T03:39:17.459Z,100686.16
2022-11-29T03:42:14.179Z,100693.38
2022-11-29T03:45:29.962Z,100692.11
2022-11-29T03:48:41.722Z,100692.58
2022-11-29T03:52:02.962Z,100694.09
2022-11-29T03:55:08.981Z,100700.15
2022-11-29T03:58:17.570Z,100699.48
2022-11-29T04:01:30.030Z,100700.73
2022-11-29T04:04:48.244Z,100706.78
2022-11-29T04:07:45.749Z,100707.30
2022-11-29T04:11:03.184Z,100716.25
2022-11-29T04:14:37.015Z,100711.39
2022-11-29T04:17:52.621Z,100712.70
2022-11-29T04:21:05.784Z,100715.64
2022-11-29T04:24:09.305Z,100716.84
2022-11-29T04:27:30.529Z,100711.75
2022-11-29T04:30:24.965Z,100717.73
2022-11-29T04:34:00.365Z,100721.82
2022-11-29T04:37:24.860Z,100727.02
2022-11-29T04:40:44.581Z,100729.40
2022-11-29T04:44:06.383Z,100733.50
2022-11-29T04:47:02.242Z,100732.34
2022-11-29T04:50:27.792Z,100733.43
2022-11-29T04:54:06.957Z,100742.70
2022-11-29T04:57:42.282Z,100742.52
2022-11-29T05:00:35.202Z,100742.28
2022-11-29T05:03:38.924Z,100743.86
2022-11-29T05:06:43.545Z,100748.69
2022-11-29T05:09:50.152Z,100755.43
2022-11-29T05:12:45.891Z,100762.52
2022-11-29T05:16:15.094Z,100762.20
2022-11-29T05:19:45.969Z,100755.15
2022-11-29T05:22:57.643Z,100760.96
2022-11-29T05:26:01.619Z,100759.77
2022-11-29T05:29:08.083Z,100761.63
2022-11-29T05:32:27.008Z,100766.70
2022-11-29T05:35:53.709Z,100767.83
2022-11-29T05:38:50.611Z,100766.61
2022-11-29T05:42:15.798Z,100767.65
2022-11-29T05:45:22.980Z,100769.61
2022-11-29T05:48:37.533Z,100773.88
2022-11-29T05:52:02.845Z,100775.92
2022-11-29T05:54:55.603Z,100773.20
2022-11-29T05:58:30.497Z,100769.21
2022-11-29T06:01:32.604Z,100770.60
2022-11-29T06:04:29.418Z,100775.35
2022-11-29T06:07:26.224Z,100784.00
2022-11-29T06:10:18.663Z,100783.04
2022-11-29T06:13:58.992Z,100787.38
2022-11-29T06:17:03.411Z,100788.55
2022-11-29T06:20:13.175Z,100790.23
2022-11-29T06:23:35.193Z,100793.55
2022-11-29T06:26:47.378Z,100794.80
2022-11-29T06:29:57.483Z,100798.75
2022-11-29T06:32:51.059Z,100802.31
2022-11-29T06:35:51.237Z,100803.67
2022-11-29T06:38:39.326Z,100805.34
2022-11-29T06:41:27.709Z,100807.36
2022-11-29T06:44:15.818Z,100812.80
2022-11-29T06:47:22.871Z,100812.39
2022-11-29T06:50:22.148Z,100815.03
2022-11-29T06:53:43.856Z,100809.48
2022-11-29T06:56:48.930Z,100809.71
2022-11-29T07:00:16.615Z,100816.81
2022-11-29T07:03:23.135Z,100816.58
2022-11-29T07:06:27.260Z,100823.70
2022-11-29T07:09:19.847Z,100825.44
2022-11-29T07:12:08.884Z,100828.62
2022-11-29T07:14:57.923Z,100830.28
2022-11-29T07:17:54.630Z,100835.31
2022-11-29T07:21:25.886Z,100836.77
2022-11-29T07:24:19.364Z,100838.44
2022-11-29T07:27:34.590Z,100840.94
2022-11-29T07:30:35.229Z,100836.08
2022-11-29T07:33:53.695Z,100838.52
2022-11-29T07:36:58.839Z,100841.67
2022-11-29T07:40:27.210Z,100838.02
2022-11-29T07:43:41.293Z,100837.28
2022-11-29T07:46:29.503Z,100840.71
2022-11-29T07:49:17.336Z,100841.30
2022-11-29T07:52:04.840Z,100847.27
2022-11-29T07:54:52.481Z,100849.04
2022-11-29T07:57:40.147Z,100847.47
2022-11-29T08:00:27.859Z,100848.56
2022-11-29T08:03:15.542Z,100841.88
2022-11-29T08:06:04.153Z,100841.14
2022-11-29T08:08:51.991Z,100840.80
2022-11-29T08:11:40.129Z,100840.05
2022-11-29T08:14:33.246Z,100842.94
2022-11-29T08:17:20.639Z,100840.45
2022-11-29T08:20:10.859Z,100844.88
2022-11-29T08:22:59.955Z,100843.43
2022-11-29T08:25:47.482Z,100846.35
2022-11-29T08:28:34.782Z,100844.80
2022-11-29T08:31:22.619Z,100844.61
2022-11-29T08:34:10.807Z,100842.16
2022-11-29T08:36:58.477Z,100846.16
2022-11-29T08:39:45.995Z,100845.30
2022-11-29T08:42:33.435Z,100843.22
2022-11-29T08:45:20.944Z,100843.98
2022-11-29T08:48:08.459Z,100849.59
2022-11-29T08:50:56.933Z,100843.27
2022-11-29T08:53:51.688Z,100840.31
2022-11-29T08:59:47.245Z,100837.08
2022-11-29T09:02:36.798Z,100838.09
2022-11-29T09:05:24.470Z,100836.29
2022-11-29T09:08:11.944Z,100842.31
2022-11-29T09:10:59.658Z,100838.90
2022-11-29T09:13:50.910Z,100839.75
2022-11-29T09:16:38.678Z,100837.11
2022-11-29T09:19:26.541Z,100839.23
2022-11-29T09:22:14.255Z,100839.73
2022-11-29T09:25:01.997Z,100837.42
2022-11-29T09:27:49.771Z,100836.32
2022-11-29T09:30:38.175Z,100836.64
2022-11-29T09:33:25.689Z,100842.55
2022-11-29T09:36:13.387Z,100839.81
2022-11-29T09:39:04.992Z,100840.34
2022-11-29T09:42:24.146Z,100838.86
2022-11-29T09:45:19.712Z,100838.01
2022-11-29T09:48:25.125Z,100837.77
2022-11-29T09:51:28.072Z,100837.20
2022-11-29T09:54:40.437Z,100834.54
2022-11-29T09:57:31.480Z,100834.00
2022-11-29T10:00:20.749Z,100834.73
2022-11-29T10:03:25.622Z,100832.09
2022-11-29T10:06:40.863Z,100837.47
2022-11-29T10:09:33.991Z,100845.27
2022-11-29T10:12:46.437Z,100839.71
2022-11-29T10:16:00.008Z,100841.63
2022-11-29T10:19:01.898Z,100840.23
2022-11-29T10:22:02.155Z,100843.21
2022-11-29T10:24:54.852Z,100844.18
2022-11-29T10:27:43.224Z,100848.05
2022-11-29T10:30:36.143Z,100843.33
2022-11-29T10:33:29.879Z,100842.77
2022-11-29T10:36:34.763Z,100839.48
2022-11-29T10:39:28.476Z,100838.64
2022-11-29T10:42:41.127Z,100844.65
2022-11-29T10:45:45.986Z,100842.83
2022-11-29T10:48:34.762Z,100844.03
2022-11-29T10:51:22.355Z,100842.41
2022-11-29T10:54:42.546Z,100847.04
2022-11-29T10:57:30.195Z,100848.65
2022-11-29T11:00:17.919Z,100847.43
2022-11-29T11:03:45.593Z,100847.10
2022-11-29T11:06:52.283Z,100849.43
2022-11-29T11:09:49.828Z,100846.47
2022-11-29T11:12:37.642Z,100850.42
2022-11-29T11:15:24.840Z,100850.77
2022-11-29T11:18:23.365Z,100853.41
2022-11-29T11:21:14.276Z,100851.39
2022-11-29T11:24:03.355Z,100845.36
2022-11-29T11:26:51.029Z,100848.54
2022-11-29T11:29:43.976Z,100846.73
2022-11-29T11:32:31.638Z,100851.07
2022-11-29T11:35:24.406Z,100845.89
2022-11-29T11:38:17.751Z,100847.09
2022-11-29T11:41:48.734Z,100848.59
2022-11-29T11:44:47.446Z,100850.40
2022-11-29T11:47:48.814Z,100850.91
2022-11-29T11:50:45.793Z,100849.94
2022-11-29T11:53:37.854Z,100847.52
2022-11-29T11:56:34.832Z,100845.25
2022-11-29T11:59:26.878Z,100846.48
2022-11-29T12:02:33.369Z,100848.95
2022-11-29T12:05:20.929Z,100851.07
2022-11-29T12:08:13.158Z,100851.66
2022-11-29T12:11:07.401Z,100852.95
2022-11-29T12:13:59.741Z,100854.77
2022-11-29T12:16:50.406Z,100858.87
2022-11-29T12:19:57.483Z,100856.13
2022-11-29T12:23:12.721Z,100851.02
2022-11-29T12:26:13.751Z,100855.25
2022-11-29T12:29:18.294Z,100853.25
2022-11-29T12:32:37.573Z,100857.41
2022-11-29T12:36:03.571Z,100856.24
2022-11-29T12:39:03.627Z,100859.17
2022-11-29T12:42:14.305Z,100854.59
2022-11-29T12:45:32.527Z,100856.87
2022-11-29T12:48:49.847Z,100864.08
2022-11-29T12:51:57.988Z,100860.79
2022-11-29T12:55:05.339Z,100868.71
2022-11-29T12:58:18.942Z,100869.74
2022-11-29T13:01:45.010Z,100873.61
2022-11-29T13:04:58.108Z,100874.59
2022-11-29T13:08:36.747Z,100869.47
2022-11-29T13:11:35.001Z,100875.77
2022-11-29T13:15:15.351Z,100877.47
2022-11-29T13:18:21.556Z,100879.02
2022-11-29T13:21:47.624Z,100880.49
2022-11-29T13:24:46.760Z,100884.16
2022-11-29T13:27:46.546Z,100887.30
2022-11-29T13:30:35.782Z,100889.71
2022-11-29T13:33:42.725Z,100890.30
2022-11-29T13:36:48.600Z,100886.64
2022-11-29T13:40:07.720Z,100886.32
2022-11-29T13:43:20.287Z,100888.65
2022-11-29T13:46:36.070Z,100886.64
2022-11-29T13:49:53.210Z,100889.40
2022-11-29T13:52:47.697Z,100890.98
2022-11-29T13:55:45.251Z,100888.39
2022-11-29T13:58:39.394Z,100889.01
2022-11-29T14:01:28.618Z,100893.77
2022-11-29T14:04:45.594Z,100898.46
2022-11-29T14:07:35.147Z,100895.80
2022-11-29T14:10:29.243Z,100897.03
2022-11-29T14:13:17.724Z,100897.71
2022-11-29T14:16:15.107Z,100894.92
2022-11-29T14:19:34.095Z,100901.73
2022-11-29T14:22:22.708Z,100900.73
2022-11-29T14:28:40.879Z,100906.48
2022-11-29T14:31:51.194Z,100905.61
2022-11-29T14:34:45.170Z,100903.84
2022-11-29T14:37:49.714Z,100902.70
2022-11-29T14:40:52.847Z,100905.36
2022-11-29T14:43:43.183Z,100905.38
2022-11-29T14:46:32.453Z,100903.52
2022-11-29T14:49:25.080Z,100906.85
2022-11-29T14:52:15.809Z,100905.40
2022-11-29T14:55:05.835Z,100907.73
2022-11-29T14:58:19.576Z,100910.05
2022-11-29T15:01:10.690Z,100905.48
2022-11-29T15:04:05.361Z,100908.57
2022-11-29T15:06:57.081Z,100908.35
2022-11-29T15:09:49.546Z,100909.84
2022-11-29T15:12:38.268Z,100908.67
2022-11-29T15:15:46.473Z,100912.92
2022-11-29T15:19:00.458Z,100914.55
2022-11-29T15:22:15.868Z,100912.27
2022-11-29T15:25:13.809Z,100910.48
2022-11-29T15:28:06.012Z,100909.89
2022-11-29T15:31:09.742Z,100911.27
2022-11-29T15:33:57.663Z,100915.23
2022-11-29T15:36:45.330Z,100916.32
2022-11-29T15:39:36.886Z,100919.35
2022-11-29T15:42:28.289Z,100918.61
2022-11-29T15:45:37.465Z,100919.46
2022-11-29T15:48:27.633Z,100917.38
2022-11-29T15:51:31.428Z,100922.50
2022-11-29T15:54:33.495Z,100918.88
2022-11-29T15:57:35.154Z,100922.88
2022-11-29T16:00:28.219Z,100922.17
2022-11-29T16:03:29.972Z,100925.74
2022-11-29T16:06:27.890Z,100929.02
2022-11-29T16:09:28.824Z,100930.12
2022-11-29T16:12:18.820Z,100932.89
2022-11-29T16:15:28.603Z,100939.19
2022-11-29T16:18:23.534Z,100933.48
2022-11-29T16:21:25.584Z,100939.17
2022-11-29T16:24:23.203Z,100944.48
2022-11-29T16:27:14.077Z,100941.55
2022-11-29T16:30:02.812Z,100940.04
2022-11-29T16:32:59.138Z,100944.27
2022-11-29T16:35:47.532Z,100944.14
2022-11-29T16:38:35.079Z,100948.80
2022-11-29T16:41:34.281Z,100949.10
2022-11-29T16:44:40.113Z,100955.38
2022-11-29T16:47:31.428Z,100959.36
2022-11-29T16:50:21.946Z,100961.45
2022-11-29T16:53:36.911Z,100964.73
2022-11-29T16:56:27.777Z,100961.57
2022-11-29T16:59:21.066Z,100962.89
2022-11-29T17:02:15.860Z,100962.27
2022-11-29T17:05:03.810Z,100963.86
2022-11-29T17:07:52.023Z,100965.93
2022-11-29T17:10:39.571Z,100962.02
2022-11-29T17:13:29.791Z,100966.48
2022-11-29T17:16:21.551Z,100969.33
2022-11-29T17:19:13.530Z,100972.30
2022-11-29T17:22:01.631Z,100979.48
2022-11-29T17:24:49.607Z,100984.11
2022-11-29T17:27:37.755Z,100984.06
2022-11-29T17:30:25.934Z,100992.96
2022-11-29T17:33:13.797Z,100991.80
2022-11-29T17:36:07.204Z,100991.45
2022-11-29T17:38:55.842Z,100996.60
2022-11-29T17:41:43.608Z,100996.10
2022-11-29T17:44:31.026Z,100995.98
2022-11-29T17:47:18.916Z,100998.66
2022-11-29T17:50:07.542Z,100998.63
2022-11-29T17:52:55.232Z,101004.92
2022-11-29T17:55:42.563Z,101007.42
2022-11-29T17:58:30.143Z,101009.04
2022-11-29T18:01:21.648Z,101013.05
2022-11-29T18:04:09.231Z,101013.48
2022-11-29T18:06:56.594Z,101010.17
2022-11-29T18:09:46.071Z,101009.13
2022-11-29T18:12:34.175Z,101008.59
2022-11-29T18:15:21.847Z,101013.11
2022-11-29T18:18:10.632Z,101009.27
2022-11-29T18:21:00.385Z,101017.48
2022-11-29T18:23:48.040Z,101016.64
2022-11-29T18:26:37.746Z,101014.77
2022-11-29T18:29:25.556Z,101016.13
2022-11-29T18:32:12.884Z,101016.77
2022-11-29T18:35:01.783Z,101014.88
2022-11-29T18:38:14.169Z,101015.92
2022-11-29T18:40:58.053Z,101014.68
2022-11-29T18:43:47.696Z,101019.94
2022-11-29T18:46:38.324Z,101017.00
2022-11-29T18:49:25.778Z,101015.49
2022-11-29T18:52:13.531Z,101018.17
2022-11-29T18:55:01.473Z,101024.51
2022-11-29T18:57:49.713Z,101024.98
2022-11-29T19:00:37.620Z,101030.77
2022-11-29T19:03:25.371Z,101029.42
2022-11-29T19:06:16.290Z,101026.64
2022-11-29T19:09:05.211Z,101025.05
2022-11-29T19:11:52.671Z,101022.23
2022-11-29T19:14:43.826Z,101024.48
2022-11-29T19:17:38.820Z,101025.31
2022-11-29T19:20:34.115Z,101029.70
2022-11-29T19:23:22.201Z,101028.35
2022-11-29T19:26:12.948Z,101028.17
2022-11-29T19:29:01.967Z,101027.77
2022-11-29T19:31:51.551Z,101026.17
2022-11-29T19:34:39.538Z,101021.99
2022-11-29T19:37:27.074Z,101030.71
2022-11-29T19:40:14.715Z,101033.54
2022-11-29T19:43:02.623Z,101030.59
2022-11-29T19:45:50.585Z,101035.40
2022-11-29T19:48:38.377Z,101045.11
2022-11-29T19:51:28.441Z,101043.27
2022-11-29T19:54:15.990Z,101045.79
2022-11-29T19:57:03.564Z,101048.29
2022-11-29T19:59:51.314Z,101045.36
2022-11-29T20:02:39.357Z,101044.73
2022-11-29T20:05:28.727Z,101048.45
2022-11-29T20:08:21.206Z,101048.11
2022-11-29T20:11:16.249Z,101053.69
2022-11-29T20:14:08.537Z,101053.94
2022-11-29T20:16:58.676Z,101052.90
2022-11-29T20:19:46.543Z,101053.65
2022-11-29T20:22:34.133Z,101059.20
2022-11-29T20:25:22.027Z,101058.33
2022-11-29T20:28:10.914Z,101056.63
2022-11-29T20:31:06.033Z,101055.59
2022-11-29T20:33:57.521Z,101055.42
2022-11-29T20:36:54.239Z,101053.46
2022-11-29T20:39:53.300Z,101055.03
2022-11-29T20:43:06.567Z,101056.38
2022-11-29T20:45:54.479Z,101057.38
2022-11-29T20:48:42.810Z,101057.23
2022-11-29T20:51:42.363Z,101060.70
2022-11-29T20:54:29.960Z,101062.38
2022-11-29T20:57:18.972Z,101064.98
2022-11-29T21:00:11.390Z,101064.77
2022-11-29T21:02:59.719Z,101063.02
2022-11-29T21:05:50.069Z,101064.99
2022-11-29T21:08:37.608Z,101063.95
2022-11-29T21:11:25.727Z,101066.73
2022-11-29T21:14:14.124Z,101070.41
2022-11-29T21:17:03.340Z,101073.37
2022-11-29T21:19:52.156Z,101076.54
2022-11-29T21:22:58.545Z,101070.45
2022-11-29T21:26:03.052Z,101070.95
2022-11-29T21:29:21.981Z,101072.00
2022-11-29T21:32:22.434Z,101072.55
2022-11-29T21:35:10.026Z,101076.95
2022-11-29T21:38:01.735Z,101071.20
2022-11-29T21:40:50.037Z,101077.29
2022-11-29T21:44:05.004Z,101078.11
2022-11-29T21:46:45.391Z,101081.89
2022-11-29T21:49:33.585Z,101085.38
2022-11-29T21:52:23.030Z,101081.88
2022-11-29T21:55:12.960Z,101085.34
2022-11-29T21:58:00.602Z,101085.27
2022-11-29T22:00:48.058Z,101082.96
2022-11-29T22:03:36.294Z,101085.50
2022-11-29T22:06:27.900Z,101088.77
2022-11-29T22:09:15.371Z,101091.02
2022-11-29T22:12:14.803Z,101096.61
2022-11-29T22:15:14.019Z,101092.80
2022-11-29T22:18:02.985Z,101098.46
2022-11-29T22:20:50.447Z,101099.63
2022-11-29T22:23:37.771Z,101099.11
2022-11-29T22:26:25.377Z,101096.50
2022-11-29T22:29:14.379Z,101097.20
2022-11-29T22:32:02.383Z,101091.69
2022-11-29T22:34:49.832Z,101096.23
2022-11-29T22:37:37.668Z,101095.52
2022-11-29T22:40:25.302Z,101099.38
2022-11-29T22:43:12.922Z,101097.46
2022-11-29T22:46:12.965Z,101098.86
2022-11-29T22:49:01.764Z,101096.89
2022-11-29T22:51:49.371Z,101104.20
2022-11-29T22:54:36.911Z,101105.27
2022-11-29T22:57:24.571Z,101106.52
2022-11-29T23:00:14.487Z,101106.86
2022-11-29T23:03:02.168Z,101113.27
2022-11-29T23:05:49.472Z,101113.25
2022-11-29T23:08:38.136Z,101114.29
2022-11-29T23:11:29.084Z,101114.98
2022-11-29T23:14:16.604Z,101111.32
2022-11-29T23:17:03.931Z,101114.59
2022-11-29T23:19:51.630Z,101112.49
2022-11-29T23:22:39.403Z,101110.05
2022-11-29T23:25:27.134Z,101104.45
2022-11-29T23:28:14.663Z,101106.85
2022-11-29T23:31:02.360Z,101107.81
2022-11-29T23:33:50.200Z,101105.99
2022-11-29T23:36:37.960Z,101106.55
2022-11-29T23:39:25.526Z,101103.09
2022-11-29T23:42:12.949Z,101103.27
2022-11-29T23:45:00.694Z,101101.15
2022-11-29T23:47:47.993Z,101100.98
2022-11-29T23:50:35.957Z,101100.08
2022-11-29T23:53:23.733Z,101098.98
2022-11-29T23:56:15.366Z,101094.62
2022-11-29T23:59:04.194Z,101095.35
